Time;durP1;ratioP1;P1;durP2;ratioP2;P2;SDS_P1;SDS_P2;PMS_P1;PMS_P2;Temp;Humidity;BMP_temperature;BMP_pressure;BME280_temperature;BME280_humidity;BME280_pressure;Samples;Min_cycle;Max_cycle;Signal;HPM_P1;HPM_P2
2021/12/03 00:02:03;;;;;;;;;12.25;12.25;;;;;;;;4949453;28;45986;-48
2021/12/03 00:04:28;;;;;;;;;11.00;11.00;;;;;;;;4957707;28;45471;-51
2021/12/03 00:06:55;;;;;;;;;13.00;11.00;;;;;;;;4957255;28;45512;-48
2021/12/03 00:09:20;;;;;;;;;9.00;9.00;;;;;;;;4958145;28;45488;-49
2021/12/03 00:11:45;;;;;;;;;10.75;10.75;;;;;;;;4957020;28;45545;-51
2021/12/03 00:14:11;;;;;;;;;8.00;8.00;;;;;;;;4957962;28;45586;-50
2021/12/03 00:16:36;;;;;;;;;12.25;12.25;;;;;;;;4957379;28;45686;-50
2021/12/03 00:19:01;;;;;;;;;10.00;10.00;;;;;;;;4957518;28;45521;-52
2021/12/03 00:21:27;;;;;;;;;10.50;10.00;;;;;;;;4957399;28;45476;-53
2021/12/03 00:23:53;;;;;;;;;9.75;9.00;;;;;;;;4955915;28;45434;-51
2021/12/03 00:26:18;;;;;;;;;12.50;12.50;;;;;;;;4956852;28;45385;-53
2021/12/03 00:28:43;;;;;;;;;10.50;10.50;;;;;;;;4954118;28;45396;-52
2021/12/03 00:31:08;;;;;;;;;9.75;9.75;;;;;;;;4957109;28;45480;-50
2021/12/03 00:33:35;;;;;;;;;9.25;9.25;;;;;;;;4957394;28;45435;-52
2021/12/03 00:36:05;;;;;;;;;14.25;10.25;;;;;;;;4957881;28;45574;-49
2021/12/03 00:38:35;;;;;;;;;12.25;10.00;;;;;;;;4957325;28;45420;-46
2021/12/03 00:41:01;;;;;;;;;13.50;13.50;;;;;;;;4955996;28;47238;-48
2021/12/03 00:43:26;;;;;;;;;11.25;11.25;;;;;;;;4957704;28;45332;-48
2021/12/03 00:45:54;;;;;;;;;11.50;11.00;;;;;;;;4957321;28;45453;-49
2021/12/03 00:48:19;;;;;;;;;20.75;15.00;;;;;;;;4951013;28;45385;-52
2021/12/03 00:50:44;;;;;;;;;12.00;10.75;;;;;;;;4958225;28;46773;-50
2021/12/03 00:53:09;;;;;;;;;12.25;12.25;;;;;;;;4958695;28;45426;-49
2021/12/03 00:55:35;;;;;;;;;14.50;10.75;;;;;;;;4957980;28;45495;-49
2021/12/03 00:58:00;;;;;;;;;12.25;11.25;;;;;;;;4958008;28;45467;-49
2021/12/03 01:00:27;;;;;;;;;17.75;14.00;;;;;;;;4957095;28;45745;-50
2021/12/03 01:02:54;;;;;;;;;13.75;13.75;;;;;;;;4957778;28;45221;-48
2021/12/03 01:05:20;;;;;;;;;14.75;11.25;;;;;;;;4958367;28;45350;-49
2021/12/03 01:07:45;;;;;;;;;20.25;14.50;;;;;;;;4956394;28;45703;-52
2021/12/03 01:10:10;;;;;;;;;16.50;16.50;;;;;;;;4957368;28;45944;-50
2021/12/03 01:12:36;;;;;;;;;12.00;12.00;;;;;;;;4956805;28;45489;-49
2021/12/03 01:15:03;;;;;;;;;14.50;13.75;;;;;;;;4958271;28;45440;-48
2021/12/03 01:17:28;;;;;;;;;10.75;10.75;;;;;;;;4954349;28;45511;-49
2021/12/03 01:19:54;;;;;;;;;17.25;14.50;;;;;;;;4948712;28;48443;-48
2021/12/03 01:22:19;;;;;;;;;16.00;14.00;;;;;;;;4957760;28;45316;-50
2021/12/03 01:24:45;;;;;;;;;11.25;11.25;;;;;;;;4957672;28;45462;-49
2021/12/03 01:27:10;;;;;;;;;15.75;14.75;;;;;;;;4957650;28;45534;-47
2021/12/03 01:29:35;;;;;;;;;13.50;13.50;;;;;;;;4988326;28;45473;-46
2021/12/03 01:32:00;;;;;;;;;14.00;14.00;;;;;;;;4961253;28;45273;-49
2021/12/03 01:34:26;;;;;;;;;9.25;9.00;;;;;;;;4957884;28;45427;-50
2021/12/03 01:36:51;;;;;;;;;11.25;11.25;;;;;;;;4957229;28;45502;-46
2021/12/03 01:39:17;;;;;;;;;18.00;14.00;;;;;;;;4957500;28;45212;-47
2021/12/03 01:41:42;;;;;;;;;10.50;10.50;;;;;;;;4957554;28;45381;-48
2021/12/03 01:44:08;;;;;;;;;13.50;12.25;;;;;;;;4957663;28;45495;-50
2021/12/03 01:46:33;;;;;;;;;14.75;14.75;;;;;;;;4957280;28;45420;-51
2021/12/03 01:48:59;;;;;;;;;14.50;14.25;;;;;;;;4950350;28;45492;-50
2021/12/03 01:51:25;;;;;;;;;14.25;14.25;;;;;;;;4956568;28;45408;-48
2021/12/03 01:53:50;;;;;;;;;14.00;12.25;;;;;;;;4957727;28;45337;-50
2021/12/03 01:56:16;;;;;;;;;15.00;15.00;;;;;;;;4956980;28;45600;-48
2021/12/03 01:58:43;;;;;;;;;15.00;11.50;;;;;;;;4957136;28;45451;-52
2021/12/03 02:01:10;;;;;;;;;19.00;15.50;;;;;;;;4956499;28;45381;-47
2021/12/03 02:03:36;;;;;;;;;17.50;14.50;;;;;;;;4957447;28;45296;-47
2021/12/03 02:06:02;;;;;;;;;13.25;13.25;;;;;;;;4957368;28;45554;-45
2021/12/03 02:08:27;;;;;;;;;9.25;9.25;;;;;;;;4956424;28;45486;-51
2021/12/03 02:10:53;;;;;;;;;11.75;11.75;;;;;;;;4957206;28;45381;-53
2021/12/03 02:13:19;;;;;;;;;14.00;11.25;;;;;;;;4956384;28;45351;-48
2021/12/03 02:15:46;;;;;;;;;12.00;12.00;;;;;;;;4956818;28;45667;-48
2021/12/03 02:18:13;;;;;;;;;19.50;17.00;;;;;;;;4956590;28;45428;-50
2021/12/03 02:20:43;;;;;;;;;16.00;14.75;;;;;;;;4956854;28;45463;-49
2021/12/03 02:23:08;;;;;;;;;14.75;14.75;;;;;;;;4987827;28;45293;-49
2021/12/03 02:25:34;;;;;;;;;15.25;15.25;;;;;;;;4955322;28;45512;-47
2021/12/03 02:27:59;;;;;;;;;15.50;14.25;;;;;;;;4956714;28;45376;-47
2021/12/03 02:30:25;;;;;;;;;18.50;18.50;;;;;;;;4956876;28;45353;-50
2021/12/03 02:32:51;;;;;;;;;17.75;17.25;;;;;;;;4952852;28;45221;-47
2021/12/03 02:35:18;;;;;;;;;18.75;16.25;;;;;;;;4948907;28;45516;-50
2021/12/03 02:37:43;;;;;;;;;20.50;19.00;;;;;;;;4956659;28;45528;-50
2021/12/03 02:40:09;;;;;;;;;18.00;16.25;;;;;;;;4957158;28;45341;-45
2021/12/03 02:42:34;;;;;;;;;14.33;14.33;;;;;;;;4956992;28;45594;-49
2021/12/03 02:45:00;;;;;;;;;15.00;15.00;;;;;;;;4956384;28;45659;-50
2021/12/03 02:47:25;;;;;;;;;12.00;12.00;;;;;;;;4953859;28;45482;-49
2021/12/03 02:49:50;;;;;;;;;19.75;18.25;;;;;;;;4988253;28;45552;-49
2021/12/03 02:52:15;;;;;;;;;18.75;18.75;;;;;;;;4956946;28;45415;-52
2021/12/03 02:54:40;;;;;;;;;16.00;14.75;;;;;;;;4956612;28;45374;-52
2021/12/03 02:57:06;;;;;;;;;20.00;16.50;;;;;;;;4956210;28;46438;-49
2021/12/03 02:59:32;;;;;;;;;16.00;16.00;;;;;;;;4956867;28;45276;-48
2021/12/03 03:01:58;;;;;;;;;18.00;15.50;;;;;;;;4955896;28;45573;-51
2021/12/03 03:04:23;;;;;;;;;17.00;16.00;;;;;;;;4957008;28;45313;-50
2021/12/03 03:06:48;;;;;;;;;14.50;14.50;;;;;;;;4956567;28;46495;-49
2021/12/03 03:09:14;;;;;;;;;9.25;9.25;;;;;;;;4955998;28;45365;-48
2021/12/03 03:11:40;;;;;;;;;21.25;16.75;;;;;;;;4956577;28;45325;-48
2021/12/03 03:14:05;;;;;;;;;13.50;12.00;;;;;;;;4956496;28;45266;-53
2021/12/03 03:16:30;;;;;;;;;14.25;11.75;;;;;;;;4954861;28;46034;-49
2021/12/03 03:18:55;;;;;;;;;14.75;14.75;;;;;;;;4955919;28;45382;-52
2021/12/03 03:21:21;;;;;;;;;15.00;12.25;;;;;;;;4955613;28;45502;-50
2021/12/03 03:23:46;;;;;;;;;14.75;14.50;;;;;;;;4956083;28;45384;-49
2021/12/03 03:26:11;;;;;;;;;14.25;12.75;;;;;;;;4955340;28;45466;-48
2021/12/03 03:28:39;;;;;;;;;15.00;14.00;;;;;;;;4956224;28;45431;-53
2021/12/03 03:31:04;;;;;;;;;17.25;16.50;;;;;;;;4956063;28;45396;-53
2021/12/03 03:33:30;;;;;;;;;16.50;15.25;;;;;;;;4956415;28;45550;-46
2021/12/03 03:35:55;;;;;;;;;15.75;14.00;;;;;;;;4957195;28;45913;-47
2021/12/03 03:38:21;;;;;;;;;13.00;11.50;;;;;;;;4959198;28;45306;-53
2021/12/03 03:40:46;;;;;;;;;11.00;11.00;;;;;;;;4959711;28;45158;-48
2021/12/03 03:43:12;;;;;;;;;12.50;11.25;;;;;;;;4959384;28;45195;-49
2021/12/03 03:45:38;;;;;;;;;15.00;11.75;;;;;;;;4959490;28;45617;-48
2021/12/03 03:48:03;;;;;;;;;7.25;7.00;;;;;;;;4948377;28;45458;-48
2021/12/03 03:50:29;;;;;;;;;10.00;9.00;;;;;;;;4959845;28;45504;-49
2021/12/03 03:52:55;;;;;;;;;9.75;9.75;;;;;;;;4959105;28;45488;-51
2021/12/03 03:55:21;;;;;;;;;12.50;11.00;;;;;;;;4959047;28;46523;-51
2021/12/03 03:57:47;;;;;;;;;14.00;10.50;;;;;;;;4958922;28;45384;-53
2021/12/03 04:00:14;;;;;;;;;9.75;9.75;;;;;;;;4958870;28;45376;-48
2021/12/03 04:02:40;;;;;;;;;11.00;8.25;;;;;;;;4956711;28;45436;-50
2021/12/03 04:05:05;;;;;;;;;10.00;10.00;;;;;;;;4958899;28;45968;-51
2021/12/03 04:07:31;;;;;;;;;12.75;11.00;;;;;;;;4959273;28;45298;-50
2021/12/03 04:09:56;;;;;;;;;10.00;10.00;;;;;;;;4958700;28;45666;-49
2021/12/03 04:12:21;;;;;;;;;9.75;9.75;;;;;;;;4959025;28;45147;-51
2021/12/03 04:14:46;;;;;;;;;12.25;9.75;;;;;;;;4958641;28;45181;-50
2021/12/03 04:17:12;;;;;;;;;10.50;10.00;;;;;;;;4958285;28;45273;-49
2021/12/03 04:19:37;;;;;;;;;8.75;8.75;;;;;;;;4958817;28;45643;-52
2021/12/03 04:22:03;;;;;;;;;10.00;10.00;;;;;;;;4959027;28;45590;-49
2021/12/03 04:24:35;;;;;;;;;8.00;8.00;;;;;;;;4957966;28;45512;-47
2021/12/03 04:27:00;;;;;;;;;9.75;9.75;;;;;;;;4957764;28;45321;-49
2021/12/03 04:29:25;;;;;;;;;11.00;9.75;;;;;;;;4958724;28;45459;-47
2021/12/03 04:31:51;;;;;;;;;6.75;6.75;;;;;;;;4958803;28;45235;-45
2021/12/03 04:34:16;;;;;;;;;11.00;11.00;;;;;;;;4939806;28;45305;-48
2021/12/03 04:36:41;;;;;;;;;7.50;7.50;;;;;;;;4956649;28;45454;-48
2021/12/03 04:39:06;;;;;;;;;10.25;8.50;;;;;;;;4958498;28;45511;-49
2021/12/03 04:41:32;;;;;;;;;11.25;7.00;;;;;;;;4958833;28;45218;-48
2021/12/03 04:43:57;;;;;;;;;7.00;7.00;;;;;;;;4958339;28;46693;-45
2021/12/03 04:46:22;;;;;;;;;11.00;10.00;;;;;;;;4949849;28;45346;-47
2021/12/03 04:48:48;;;;;;;;;8.75;8.50;;;;;;;;4938677;28;45423;-47
2021/12/03 04:51:13;;;;;;;;;7.50;7.50;;;;;;;;4944060;28;45616;-51
2021/12/03 04:53:38;;;;;;;;;4.00;4.00;;;;;;;;4966717;28;45396;-49
2021/12/03 04:56:03;;;;;;;;;8.00;7.00;;;;;;;;4968162;28;45440;-52
2021/12/03 04:58:29;;;;;;;;;11.25;8.00;;;;;;;;4978005;28;45222;-51
2021/12/03 05:00:55;;;;;;;;;9.75;7.00;;;;;;;;4957784;28;45419;-52
2021/12/03 05:03:24;;;;;;;;;6.75;6.75;;;;;;;;4956949;28;46351;-48
2021/12/03 05:05:56;;;;;;;;;9.50;6.50;;;;;;;;4958511;28;45297;-49
2021/12/03 05:08:23;;;;;;;;;9.25;7.00;;;;;;;;4957180;28;45506;-48
2021/12/03 05:10:48;;;;;;;;;9.75;9.75;;;;;;;;4958318;28;45654;-51
2021/12/03 05:13:33;;;;;;;;;8.50;8.50;;;;;;;;4958471;28;46282;-49
2021/12/03 05:15:59;;;;;;;;;9.50;9.50;;;;;;;;4957704;28;45416;-51
2021/12/03 05:18:25;;;;;;;;;6.50;6.00;;;;;;;;4958649;28;45599;-50
2021/12/03 05:20:51;;;;;;;;;6.00;6.00;;;;;;;;4957872;28;45555;-48
2021/12/03 05:23:18;;;;;;;;;10.50;9.75;;;;;;;;4958176;28;45345;-50
2021/12/03 05:25:43;;;;;;;;;9.00;9.00;;;;;;;;4957756;28;45364;-50
2021/12/03 05:28:08;;;;;;;;;6.75;6.50;;;;;;;;4958028;28;45526;-51
2021/12/03 05:30:34;;;;;;;;;10.75;7.50;;;;;;;;4957839;28;45343;-51
2021/12/03 05:33:00;;;;;;;;;14.00;10.00;;;;;;;;4958209;28;45355;-51
2021/12/03 05:35:26;;;;;;;;;9.25;9.25;;;;;;;;4958302;28;45444;-48
2021/12/03 05:37:51;;;;;;;;;9.75;9.75;;;;;;;;4956501;28;45406;-49
2021/12/03 05:40:17;;;;;;;;;8.50;8.00;;;;;;;;4970126;28;45513;-52
2021/12/03 05:42:45;;;;;;;;;10.00;10.00;;;;;;;;4968040;28;46256;-49
2021/12/03 05:45:11;;;;;;;;;12.25;11.00;;;;;;;;4956307;28;45353;-49
2021/12/03 05:47:36;;;;;;;;;9.75;9.00;;;;;;;;4968679;28;45453;-51
2021/12/03 05:50:03;;;;;;;;;11.50;11.50;;;;;;;;4970640;28;45370;-47
2021/12/03 05:52:28;;;;;;;;;11.00;10.25;;;;;;;;4969598;28;45739;-53
2021/12/03 05:54:53;;;;;;;;;10.25;9.25;;;;;;;;4976201;28;45402;-49
2021/12/03 05:57:18;;;;;;;;;10.00;9.75;;;;;;;;4968708;28;45430;-50
2021/12/03 05:59:44;;;;;;;;;10.50;10.00;;;;;;;;4957307;28;45532;-49
2021/12/03 06:02:09;;;;;;;;;9.50;9.50;;;;;;;;4958280;28;45443;-51
2021/12/03 06:04:34;;;;;;;;;9.50;5.50;;;;;;;;4973263;28;46056;-50
2021/12/03 06:07:00;;;;;;;;;12.00;9.25;;;;;;;;4958288;28;45302;-48
2021/12/03 06:09:26;;;;;;;;;9.00;6.25;;;;;;;;4958288;28;45553;-50
2021/12/03 06:11:51;;;;;;;;;1.50;0.00;;;;;;;;4957658;28;45368;-49
2021/12/03 06:14:16;;;;;;;;;10.25;10.25;;;;;;;;4957287;28;45321;-51
2021/12/03 06:16:43;;;;;;;;;7.00;7.00;;;;;;;;4952979;28;45380;-49
2021/12/03 06:19:08;;;;;;;;;9.00;9.00;;;;;;;;4957705;28;45415;-51
2021/12/03 06:21:33;;;;;;;;;10.00;10.00;;;;;;;;4957294;28;46256;-49
2021/12/03 06:23:58;;;;;;;;;8.50;8.50;;;;;;;;4957139;28;45685;-48
2021/12/03 06:26:23;;;;;;;;;10.75;10.75;;;;;;;;4957298;28;45433;-48
2021/12/03 06:28:49;;;;;;;;;13.75;13.25;;;;;;;;4957682;28;45290;-51
2021/12/03 06:31:14;;;;;;;;;14.25;14.25;;;;;;;;4956729;28;46295;-47
2021/12/03 06:33:39;;;;;;;;;12.50;12.50;;;;;;;;4957300;28;45308;-50
2021/12/03 06:36:04;;;;;;;;;11.00;11.00;;;;;;;;4956942;28;45408;-48
2021/12/03 06:38:31;;;;;;;;;11.00;10.00;;;;;;;;4957237;28;45607;-49
2021/12/03 06:40:56;;;;;;;;;13.00;11.00;;;;;;;;4956035;28;45541;-50
2021/12/03 06:43:21;;;;;;;;;9.50;9.50;;;;;;;;4956831;28;45229;-51
2021/12/03 06:45:47;;;;;;;;;10.75;10.75;;;;;;;;4951837;28;45235;-51
2021/12/03 06:48:12;;;;;;;;;12.00;12.00;;;;;;;;4956704;28;45514;-48
2021/12/03 06:50:38;;;;;;;;;14.00;14.00;;;;;;;;4956449;28;46497;-45
2021/12/03 06:53:06;;;;;;;;;9.00;9.00;;;;;;;;4957206;28;45238;-48
2021/12/03 06:55:45;;;;;;;;;14.00;13.00;;;;;;;;4957267;28;45516;-49
2021/12/03 06:58:10;;;;;;;;;9.00;9.00;;;;;;;;4956463;28;45321;-52
2021/12/03 07:00:36;;;;;;;;;9.75;9.75;;;;;;;;4956311;28;45605;-50
2021/12/03 07:03:01;;;;;;;;;9.50;9.00;;;;;;;;4956621;28;45536;-48
2021/12/03 07:05:26;;;;;;;;;12.25;9.75;;;;;;;;4957242;28;45348;-52
2021/12/03 07:07:51;;;;;;;;;9.00;8.25;;;;;;;;4955680;28;45585;-48
2021/12/03 07:10:17;;;;;;;;;7.00;6.00;;;;;;;;4956187;28;45966;-51
2021/12/03 07:12:42;;;;;;;;;10.25;9.25;;;;;;;;4958518;28;45423;-51
2021/12/03 07:15:07;;;;;;;;;9.50;9.50;;;;;;;;4960406;28;45421;-52
2021/12/03 07:17:33;;;;;;;;;12.75;7.00;;;;;;;;4960039;28;45294;-52
2021/12/03 07:19:59;;;;;;;;;13.00;11.00;;;;;;;;4963821;28;45392;-49
2021/12/03 07:22:25;;;;;;;;;8.50;8.50;;;;;;;;4965540;28;45534;-45
2021/12/03 07:24:51;;;;;;;;;5.75;5.75;;;;;;;;4973055;28;45474;-48
2021/12/03 07:27:16;;;;;;;;;5.75;5.75;;;;;;;;4974308;28;45334;-49
2021/12/03 07:29:47;;;;;;;;;10.00;10.00;;;;;;;;4965974;28;45468;-50
2021/12/03 07:32:12;;;;;;;;;6.25;6.25;;;;;;;;4957542;28;45506;-50
2021/12/03 07:34:37;;;;;;;;;9.00;9.00;;;;;;;;4966837;28;45285;-49
2021/12/03 07:37:03;;;;;;;;;10.75;8.50;;;;;;;;4960059;28;45265;-52
2021/12/03 07:39:28;;;;;;;;;9.25;6.50;;;;;;;;4973146;28;46524;-47
2021/12/03 07:41:54;;;;;;;;;6.00;6.00;;;;;;;;4970750;28;45434;-48
2021/12/03 07:44:19;;;;;;;;;8.00;6.00;;;;;;;;4949999;28;45644;-48
2021/12/03 07:46:44;;;;;;;;;8.75;7.00;;;;;;;;4963800;28;45547;-48
2021/12/03 07:49:09;;;;;;;;;7.50;6.50;;;;;;;;4959475;28;45437;-49
2021/12/03 07:51:34;;;;;;;;;6.25;6.25;;;;;;;;4966387;28;45218;-45
2021/12/03 07:54:00;;;;;;;;;5.00;5.00;;;;;;;;4974580;28;45475;-48
2021/12/03 07:56:25;;;;;;;;;6.75;6.75;;;;;;;;4960045;28;45408;-50
2021/12/03 07:58:50;;;;;;;;;4.00;4.00;;;;;;;;4962352;28;45447;-48
2021/12/03 08:01:15;;;;;;;;;5.00;5.00;;;;;;;;4960021;28;45308;-49
2021/12/03 08:03:40;;;;;;;;;5.00;5.00;;;;;;;;4965988;28;45450;-48
2021/12/03 08:06:09;;;;;;;;;2.00;2.00;;;;;;;;4974362;28;45555;-50
2021/12/03 08:08:37;;;;;;;;;6.00;5.00;;;;;;;;4979026;28;46090;-49
2021/12/03 08:11:02;;;;;;;;;4.50;4.50;;;;;;;;4974721;28;45424;-48
2021/12/03 08:13:27;;;;;;;;;5.50;4.00;;;;;;;;4966175;28;45870;-49
2021/12/03 08:15:53;;;;;;;;;2.25;2.25;;;;;;;;4966250;28;45582;-50
2021/12/03 08:18:18;;;;;;;;;5.75;5.00;;;;;;;;4978790;28;46089;-51
2021/12/03 08:20:43;;;;;;;;;6.00;3.00;;;;;;;;4975133;28;45182;-52
2021/12/03 08:23:08;;;;;;;;;5.00;5.00;;;;;;;;4975383;28;45250;-49
2021/12/03 08:25:33;;;;;;;;;1.75;1.75;;;;;;;;4969063;28;45505;-48
2021/12/03 08:27:59;;;;;;;;;3.00;3.00;;;;;;;;4962147;28;46132;-51
2021/12/03 08:30:30;;;;;;;;;5.50;2.75;;;;;;;;4963965;28;45617;-46
2021/12/03 08:32:56;;;;;;;;;6.75;6.75;;;;;;;;4956584;28;46009;-51
2021/12/03 08:35:21;;;;;;;;;3.50;3.50;;;;;;;;4958438;28;45611;-50
2021/12/03 08:37:48;;;;;;;;;12.75;12.75;;;;;;;;4956871;28;46406;-48
2021/12/03 08:40:14;;;;;;;;;9.00;9.00;;;;;;;;4958456;28;45403;-51
2021/12/03 08:42:39;;;;;;;;;6.00;5.50;;;;;;;;4951115;28;45385;-49
2021/12/03 08:45:05;;;;;;;;;6.00;3.00;;;;;;;;4948499;28;45361;-49
2021/12/03 08:47:30;;;;;;;;;6.75;5.00;;;;;;;;4958282;28;45394;-50
2021/12/03 08:50:06;;;;;;;;;10.25;7.00;;;;;;;;4957541;28;45480;-52
2021/12/03 08:54:56;;;;;;;;;7.00;7.00;;;;;;;;4958052;28;45317;-50
2021/12/03 08:57:32;;;;;;;;;5.00;5.00;;;;;;;;4957972;28;46406;-48
2021/12/03 09:00:02;;;;;;;;;8.50;8.50;;;;;;;;4957139;28;45328;-50
2021/12/03 09:02:28;;;;;;;;;6.75;6.75;;;;;;;;4957897;28;45245;-51
2021/12/03 09:04:53;;;;;;;;;5.75;5.00;;;;;;;;4958045;28;45320;-48
2021/12/03 09:07:19;;;;;;;;;9.00;9.00;;;;;;;;4958033;28;45983;-53
2021/12/03 09:09:44;;;;;;;;;7.00;7.00;;;;;;;;4958041;28;45367;-50
2021/12/03 09:12:10;;;;;;;;;8.50;8.50;;;;;;;;4956580;28;45512;-53
2021/12/03 09:20:01;;;;;;;;;6.75;5.50;;;;;;;;4958228;28;45231;-51
2021/12/03 09:25:03;;;;;;;;;6.50;6.50;;;;;;;;4951044;28;45574;-49
2021/12/03 09:27:28;;;;;;;;;8.25;8.25;;;;;;;;4958123;28;46198;-47
2021/12/03 09:29:55;;;;;;;;;5.00;4.00;;;;;;;;4948744;28;45364;-50
2021/12/03 09:32:27;;;;;;;;;10.75;9.00;;;;;;;;4956744;28;45479;-50
2021/12/03 09:34:52;;;;;;;;;5.75;5.50;;;;;;;;4957235;28;45293;-48
2021/12/03 09:37:17;;;;;;;;;10.00;6.00;;;;;;;;4956065;28;45675;-50
2021/12/03 09:39:45;;;;;;;;;9.00;7.00;;;;;;;;4957986;28;45369;-49
2021/12/03 09:42:10;;;;;;;;;11.50;6.50;;;;;;;;4956750;28;45394;-48
2021/12/03 09:44:39;;;;;;;;;7.00;7.00;;;;;;;;4957162;28;45524;-51
2021/12/03 09:47:05;;;;;;;;;10.50;7.00;;;;;;;;4957791;28;45459;-52
2021/12/03 09:49:35;;;;;;;;;5.50;5.50;;;;;;;;4957903;28;45293;-52
2021/12/03 09:57:02;;;;;;;;;12.00;9.75;;;;;;;;4957799;28;45508;-49
2021/12/03 10:08:18;;;;;;;;;10.75;9.00;;;;;;;;4950174;28;45378;-50
2021/12/03 10:24:19;;;;;;;;;14.00;11.00;;;;;;;;4957442;28;45241;-49
2021/12/03 10:45:05;;;;;;;;;11.25;9.75;;;;;;;;4937803;28;45386;-52
2021/12/03 10:47:42;;;;;;;;;6.00;6.00;;;;;;;;4938064;28;45427;-51
2021/12/03 11:11:37;;;;;;;;;10.00;8.75;;;;;;;;4937054;28;46211;-50
2021/12/03 11:39:13;;;;;;;;;13.00;13.00;;;;;;;;4936929;28;45420;-51
2021/12/03 11:56:47;;;;;;;;;4.00;4.00;;;;;;;;4955506;28;45372;-53
2021/12/03 12:36:03;;;;;;;;;9.50;7.25;;;;;;;;4959109;28;45281;-49
2021/12/03 13:16:03;;;;;;;;;3.25;3.25;;;;;;;;4920108;28;45424;-47
2021/12/03 14:42:08;;;;;;;;;4.25;2.00;;;;;;;;4937183;28;45425;-51
2021/12/03 14:45:11;;;;;;;;;4.25;2.00;;;;;;;;4938019;28;45471;-50
2021/12/03 14:53:22;;;;;;;;;1.00;1.00;;;;;;;;4956978;28;45421;-52
2021/12/03 14:55:55;;;;;;;;;2.50;2.00;;;;;;;;4957186;28;45371;-48
2021/12/03 14:58:28;;;;;;;;;2.00;2.00;;;;;;;;4956920;28;45641;-46
2021/12/03 15:08:41;;;;;;;;;3.00;3.00;;;;;;;;4937837;28;45365;-51
2021/12/03 15:32:36;;;;;;;;;3.25;3.25;;;;;;;;4938660;28;45476;-50
2021/12/03 15:56:34;;;;;;;;;2.00;2.00;;;;;;;;4959675;28;45414;-52
2021/12/03 16:17:12;;;;;;;;;3.00;3.00;;;;;;;;4959382;28;45222;-50
2021/12/03 16:20:10;;;;;;;;;4.50;4.50;;;;;;;;4959070;28;45442;-50
2021/12/03 16:22:55;;;;;;;;;3.00;3.00;;;;;;;;4959546;28;45258;-51
2021/12/03 16:47:14;;;;;;;;;6.00;6.00;;;;;;;;4958687;28;45475;-48
2021/12/03 16:52:10;;;;;;;;;4.75;4.50;;;;;;;;4943771;28;45322;-52
2021/12/03 16:54:56;;;;;;;;;6.25;6.00;;;;;;;;4958291;28;45234;-50
2021/12/03 16:57:28;;;;;;;;;5.00;5.00;;;;;;;;4958211;28;45576;-56
2021/12/03 16:59:53;;;;;;;;;5.75;5.00;;;;;;;;4959976;28;45375;-58
2021/12/03 17:02:25;;;;;;;;;6.00;5.25;;;;;;;;4962268;28;45438;-59
2021/12/03 17:15:51;;;;;;;;;6.75;6.75;;;;;;;;4964155;28;45572;-54
2021/12/03 17:46:15;;;;;;;;;11.00;10.00;;;;;;;;4958214;28;45421;-58
2021/12/03 17:48:46;;;;;;;;;12.25;11.00;;;;;;;;4945297;28;45415;-58
2021/12/03 18:03:44;;;;;;;;;5.25;5.25;;;;;;;;4948300;28;45309;-57
2021/12/03 18:06:43;;;;;;;;;11.25;10.00;;;;;;;;4938415;28;45357;-56
2021/12/03 18:11:44;;;;;;;;;14.00;14.00;;;;;;;;4948396;28;45391;-55
2021/12/03 18:19:35;;;;;;;;;14.25;14.25;;;;;;;;4941148;28;45475;-59
2021/12/03 18:49:25;;;;;;;;;84.75;66.00;;;;;;;;4954512;28;45325;-60
2021/12/03 18:52:03;;;;;;;;;72.00;55.50;;;;;;;;4954975;28;45308;-60
2021/12/03 18:57:02;;;;;;;;;15.00;15.00;;;;;;;;4941308;28;45336;-60
2021/12/03 18:59:27;;;;;;;;;15.50;15.00;;;;;;;;4954466;28;45443;-59
2021/12/03 19:01:53;;;;;;;;;42.50;39.00;;;;;;;;4940519;28;45748;-60
2021/12/03 19:04:30;;;;;;;;;18.00;16.75;;;;;;;;4953244;28;48233;-57
2021/12/03 19:07:08;;;;;;;;;24.00;21.50;;;;;;;;4957601;28;45150;-59
2021/12/03 19:09:40;;;;;;;;;21.00;18.50;;;;;;;;4956911;28;45323;-59
2021/12/03 19:12:10;;;;;;;;;19.50;18.25;;;;;;;;4949186;28;45162;-58
2021/12/03 19:14:42;;;;;;;;;40.25;37.25;;;;;;;;4952080;28;45467;-60
2021/12/03 19:17:08;;;;;;;;;35.75;34.25;;;;;;;;4954561;28;45502;-52
2021/12/03 19:19:38;;;;;;;;;29.25;29.00;;;;;;;;4989814;28;45361;-54
2021/12/03 19:22:04;;;;;;;;;21.25;21.25;;;;;;;;4949507;28;45344;-56
2021/12/03 19:24:30;;;;;;;;;18.25;17.75;;;;;;;;4958922;28;45610;-61
2021/12/03 19:26:55;;;;;;;;;28.75;26.75;;;;;;;;4959200;28;45432;-60
2021/12/03 19:29:20;;;;;;;;;31.25;28.00;;;;;;;;4960001;28;45396;-57
2021/12/03 19:31:47;;;;;;;;;20.00;19.00;;;;;;;;4957156;28;45565;-57
2021/12/03 19:34:13;;;;;;;;;19.00;18.50;;;;;;;;4940365;28;46142;-57
2021/12/03 19:36:40;;;;;;;;;36.50;30.50;;;;;;;;4940523;28;45302;-58
2021/12/03 19:39:06;;;;;;;;;37.50;35.50;;;;;;;;4940218;28;45266;-57
2021/12/03 19:41:39;;;;;;;;;24.25;24.25;;;;;;;;4955273;28;45559;-56
2021/12/03 19:44:10;;;;;;;;;17.75;17.75;;;;;;;;4958701;28;45471;-55
2021/12/03 19:46:38;;;;;;;;;23.25;21.25;;;;;;;;4947445;28;45549;-59
2021/12/03 19:51:31;;;;;;;;;31.75;29.00;;;;;;;;4947382;28;45352;-58
2021/12/03 19:53:59;;;;;;;;;29.00;29.00;;;;;;;;4940724;28;45449;-55
2021/12/03 19:56:29;;;;;;;;;21.50;19.75;;;;;;;;4941619;28;45559;-57
2021/12/03 19:58:56;;;;;;;;;18.75;16.75;;;;;;;;4957050;28;45474;-58
2021/12/03 20:01:22;;;;;;;;;1.00;1.00;;;;;;;;4956645;28;45511;-55
2021/12/03 20:03:52;;;;;;;;;78.25;63.00;;;;;;;;4958494;28;45227;-59
2021/12/03 20:06:18;;;;;;;;;84.50;66.75;;;;;;;;4944503;28;45250;-57
2021/12/03 20:08:43;;;;;;;;;54.25;43.75;;;;;;;;4941264;28;45350;-54
2021/12/03 20:11:09;;;;;;;;;21.75;18.00;;;;;;;;4947987;28;45466;-56
2021/12/03 20:13:35;;;;;;;;;97.00;87.50;;;;;;;;4958974;28;46422;-59
2021/12/03 20:21:17;;;;;;;;;28.50;26.50;;;;;;;;4958968;28;45348;-58
2021/12/03 20:24:55;;;;;;;;;17.25;14.25;;;;;;;;4957351;28;45669;-57
2021/12/03 20:29:21;;;;;;;;;10.25;10.25;;;;;;;;4957043;28;45500;-53
2021/12/03 20:31:59;;;;;;;;;14.75;13.75;;;;;;;;4959173;28;45488;-58
2021/12/03 20:34:48;;;;;;;;;15.00;11.50;;;;;;;;4958497;28;45565;-46
2021/12/03 20:37:19;;;;;;;;;14.50;12.50;;;;;;;;4944525;28;45358;-60
2021/12/03 20:39:46;;;;;;;;;20.25;20.25;;;;;;;;4943926;28;45468;-52
2021/12/03 21:09:16;;;;;;;;;40.00;36.25;;;;;;;;4955435;28;45486;-51
2021/12/03 21:11:50;;;;;;;;;18.50;16.50;;;;;;;;4958180;28;45505;-53
2021/12/03 21:14:19;;;;;;;;;17.00;17.00;;;;;;;;4958246;28;45217;-50
2021/12/03 21:22:16;;;;;;;;;14.75;12.75;;;;;;;;4940921;28;45425;-50
2021/12/03 21:24:43;;;;;;;;;69.75;56.25;;;;;;;;4938762;28;45371;-53
2021/12/03 21:27:20;;;;;;;;;32.25;32.25;;;;;;;;4938224;28;45680;-50
2021/12/03 21:32:56;;;;;;;;;66.25;53.00;;;;;;;;4956249;28;45398;-55
2021/12/03 21:43:18;;;;;;;;;35.25;32.00;;;;;;;;4954640;28;45360;-49
2021/12/03 21:45:44;;;;;;;;;24.75;23.00;;;;;;;;4957126;28;45298;-53
2021/12/03 21:48:09;;;;;;;;;61.50;49.25;;;;;;;;4957090;28;46119;-52
2021/12/03 21:50:35;;;;;;;;;81.50;60.50;;;;;;;;4957294;28;45195;-53
2021/12/03 21:53:02;;;;;;;;;74.25;59.00;;;;;;;;4946135;28;45428;-55
2021/12/03 21:55:28;;;;;;;;;97.00;87.50;;;;;;;;4953988;28;45456;-56
2021/12/03 21:57:54;;;;;;;;;73.25;59.75;;;;;;;;4957441;28;45294;-56
2021/12/03 22:00:19;;;;;;;;;79.00;60.75;;;;;;;;4950821;28;45427;-57
2021/12/03 22:02:44;;;;;;;;;67.00;54.25;;;;;;;;4947957;28;45451;-57
2021/12/03 22:05:10;;;;;;;;;78.75;62.50;;;;;;;;4939422;28;45444;-60
2021/12/03 22:07:35;;;;;;;;;89.50;76.00;;;;;;;;4953519;28;46198;-58
2021/12/03 22:10:00;;;;;;;;;108.75;101.75;;;;;;;;4956704;28;45460;-54
2021/12/03 22:12:25;;;;;;;;;40.50;37.50;;;;;;;;4955478;28;45333;-58
2021/12/03 22:14:50;;;;;;;;;51.00;43.75;;;;;;;;4956531;28;45503;-58
2021/12/03 22:17:16;;;;;;;;;22.75;21.50;;;;;;;;4955928;28;45451;-57
2021/12/03 22:19:41;;;;;;;;;77.75;61.00;;;;;;;;4957161;28;45462;-58
2021/12/03 22:22:07;;;;;;;;;64.25;51.25;;;;;;;;4941844;28;45333;-56
2021/12/03 22:24:36;;;;;;;;;47.50;40.75;;;;;;;;4946757;28;45556;-59
2021/12/03 22:27:02;;;;;;;;;53.00;44.75;;;;;;;;4955652;28;45503;-57
2021/12/03 22:29:27;;;;;;;;;24.50;19.75;;;;;;;;4956452;28;45324;-57
2021/12/03 22:31:53;;;;;;;;;17.50;16.75;;;;;;;;4955582;28;45361;-58
2021/12/03 22:34:18;;;;;;;;;14.50;12.00;;;;;;;;4937408;28;45415;-53
2021/12/03 22:36:43;;;;;;;;;7.75;7.75;;;;;;;;4951438;28;46199;-51
2021/12/03 22:39:09;;;;;;;;;10.75;9.50;;;;;;;;4956129;28;45368;-50
2021/12/03 22:41:37;;;;;;;;;10.25;10.25;;;;;;;;4955467;28;45475;-51
2021/12/03 22:44:03;;;;;;;;;105.75;98.00;;;;;;;;4956625;28;45484;-52
2021/12/03 22:46:36;;;;;;;;;26.00;24.75;;;;;;;;4950407;28;46366;-50
2021/12/03 22:49:17;;;;;;;;;124.00;117.33;;;;;;;;4937650;28;45304;-52
2021/12/03 22:54:17;;;;;;;;;89.50;77.00;;;;;;;;4956456;28;45401;-54
2021/12/03 22:56:43;;;;;;;;;52.00;43.00;;;;;;;;4956580;28;45330;-56
2021/12/03 22:59:12;;;;;;;;;27.50;26.50;;;;;;;;4946336;28;45569;-52
2021/12/03 23:01:37;;;;;;;;;41.25;37.75;;;;;;;;4955275;28;45341;-52
2021/12/03 23:04:03;;;;;;;;;14.75;12.75;;;;;;;;4941435;28;45591;-50
2021/12/03 23:06:29;;;;;;;;;28.25;22.50;;;;;;;;4945427;28;46163;-53